sensor_id;sensor_type;location;lat;lon;timestamp;temperature;humidity
46720;DHT22;32452;51.382;-0.002;2023-04-24T00:01:41;9.60;99.90
46720;DHT22;32452;51.382;-0.002;2023-04-24T00:04:32;9.60;99.90
46720;DHT22;32452;51.382;-0.002;2023-04-24T00:07:24;9.70;99.90
46720;DHT22;32452;51.382;-0.002;2023-04-24T00:10:10;9.60;99.90
46720;DHT22;32452;51.382;-0.002;2023-04-24T00:12:57;9.60;99.90
46720;DHT22;32452;51.382;-0.002;2023-04-24T00:15:56;9.60;99.90
46720;DHT22;32452;51.382;-0.002;2023-04-24T00:18:42;9.60;99.90
46720;DHT22;32452;51.382;-0.002;2023-04-24T00:21:39;9.60;99.90
46720;DHT22;32452;51.382;-0.002;2023-04-24T00:24:29;9.60;99.90
46720;DHT22;32452;51.382;-0.002;2023-04-24T00:27:23;9.60;99.90
46720;DHT22;32452;51.382;-0.002;2023-04-24T00:30:15;9.50;99.90
46720;DHT22;32452;51.382;-0.002;2023-04-24T00:33:10;9.50;99.90
46720;DHT22;32452;51.382;-0.002;2023-04-24T00:36:38;9.50;99.90
46720;DHT22;32452;51.382;-0.002;2023-04-24T00:39:24;9.50;99.90
46720;DHT22;32452;51.382;-0.002;2023-04-24T00:42:10;9.60;99.90
46720;DHT22;32452;51.382;-0.002;2023-04-24T00:44:56;9.50;99.90
46720;DHT22;32452;51.382;-0.002;2023-04-24T00:47:42;9.50;99.90
46720;DHT22;32452;51.382;-0.002;2023-04-24T00:50:28;9.60;99.90
46720;DHT22;32452;51.382;-0.002;2023-04-24T00:53:14;9.60;99.90
46720;DHT22;32452;51.382;-0.002;2023-04-24T00:56:00;9.60;99.90
46720;DHT22;32452;51.382;-0.002;2023-04-24T00:58:47;9.50;99.90
46720;DHT22;32452;51.382;-0.002;2023-04-24T01:01:33;9.60;99.90
46720;DHT22;32452;51.382;-0.002;2023-04-24T01:04:18;9.50;99.90
46720;DHT22;32452;51.382;-0.002;2023-04-24T01:07:05;9.60;99.90
46720;DHT22;32452;51.382;-0.002;2023-04-24T01:09:55;9.50;99.90
46720;DHT22;32452;51.382;-0.002;2023-04-24T01:12:41;9.50;99.90
46720;DHT22;32452;51.382;-0.002;2023-04-24T01:15:27;9.50;99.90
46720;DHT22;32452;51.382;-0.002;2023-04-24T01:18:13;9.50;99.90
46720;DHT22;32452;51.382;-0.002;2023-04-24T01:20:59;9.60;99.90
46720;DHT22;32452;51.382;-0.002;2023-04-24T01:23:48;9.60;99.90
46720;DHT22;32452;51.382;-0.002;2023-04-24T01:26:34;9.50;99.90
46720;DHT22;32452;51.382;-0.002;2023-04-24T01:29:20;9.50;99.90
46720;DHT22;32452;51.382;-0.002;2023-04-24T01:32:06;9.60;99.90
46720;DHT22;32452;51.382;-0.002;2023-04-24T01:34:51;9.60;99.90
46720;DHT22;32452;51.382;-0.002;2023-04-24T01:37:37;9.50;99.90
46720;DHT22;32452;51.382;-0.002;2023-04-24T01:40:23;9.50;99.90
46720;DHT22;32452;51.382;-0.002;2023-04-24T01:43:08;9.50;99.90
46720;DHT22;32452;51.382;-0.002;2023-04-24T01:45:54;9.50;99.90
46720;DHT22;32452;51.382;-0.002;2023-04-24T01:48:39;9.50;99.90
46720;DHT22;32452;51.382;-0.002;2023-04-24T01:51:25;9.50;99.90
46720;DHT22;32452;51.382;-0.002;2023-04-24T01:54:12;9.50;99.90
46720;DHT22;32452;51.382;-0.002;2023-04-24T01:56:58;9.50;99.90
46720;DHT22;32452;51.382;-0.002;2023-04-24T01:59:46;9.40;99.90
46720;DHT22;32452;51.382;-0.002;2023-04-24T02:02:31;9.40;99.90
46720;DHT22;32452;51.382;-0.002;2023-04-24T02:05:17;9.40;99.90
46720;DHT22;32452;51.382;-0.002;2023-04-24T02:08:03;9.40;99.90
46720;DHT22;32452;51.382;-0.002;2023-04-24T02:10:48;9.40;99.90
46720;DHT22;32452;51.382;-0.002;2023-04-24T02:13:34;9.40;99.90
46720;DHT22;32452;51.382;-0.002;2023-04-24T02:16:20;9.40;99.90
46720;DHT22;32452;51.382;-0.002;2023-04-24T02:19:05;9.30;99.90
46720;DHT22;32452;51.382;-0.002;2023-04-24T02:21:50;9.40;99.90
46720;DHT22;32452;51.382;-0.002;2023-04-24T02:24:37;9.30;99.90
46720;DHT22;32452;51.382;-0.002;2023-04-24T02:27:22;9.30;99.90
46720;DHT22;32452;51.382;-0.002;2023-04-24T02:30:08;9.20;99.90
46720;DHT22;32452;51.382;-0.002;2023-04-24T02:32:53;9.20;99.90
46720;DHT22;32452;51.382;-0.002;2023-04-24T02:35:39;9.20;99.90
46720;DHT22;32452;51.382;-0.002;2023-04-24T02:38:25;9.10;99.90
46720;DHT22;32452;51.382;-0.002;2023-04-24T02:41:10;9.10;99.90
46720;DHT22;32452;51.382;-0.002;2023-04-24T02:43:56;9.10;99.90
46720;DHT22;32452;51.382;-0.002;2023-04-24T02:46:41;9.10;99.90
46720;DHT22;32452;51.382;-0.002;2023-04-24T02:49:27;9.10;99.90
46720;DHT22;32452;51.382;-0.002;2023-04-24T02:52:12;9.10;99.90
46720;DHT22;32452;51.382;-0.002;2023-04-24T02:54:59;9.10;99.90
46720;DHT22;32452;51.382;-0.002;2023-04-24T02:57:45;9.10;99.90
46720;DHT22;32452;51.382;-0.002;2023-04-24T03:00:31;9.10;99.90
46720;DHT22;32452;51.382;-0.002;2023-04-24T03:03:16;9.10;99.90
46720;DHT22;32452;51.382;-0.002;2023-04-24T03:06:02;9.10;99.90
46720;DHT22;32452;51.382;-0.002;2023-04-24T03:08:47;9.10;99.90
46720;DHT22;32452;51.382;-0.002;2023-04-24T03:11:33;9.10;99.90
46720;DHT22;32452;51.382;-0.002;2023-04-24T03:14:19;9.10;99.90
46720;DHT22;32452;51.382;-0.002;2023-04-24T03:17:04;9.10;99.90
46720;DHT22;32452;51.382;-0.002;2023-04-24T03:19:50;9.10;99.90
46720;DHT22;32452;51.382;-0.002;2023-04-24T03:22:36;9.10;99.90
46720;DHT22;32452;51.382;-0.002;2023-04-24T03:25:21;9.10;99.90
46720;DHT22;32452;51.382;-0.002;2023-04-24T03:28:06;9.10;99.90
46720;DHT22;32452;51.382;-0.002;2023-04-24T03:30:52;9.10;99.90
46720;DHT22;32452;51.382;-0.002;2023-04-24T03:33:37;9.10;99.90
46720;DHT22;32452;51.382;-0.002;2023-04-24T03:36:23;9.10;99.90
46720;DHT22;32452;51.382;-0.002;2023-04-24T03:39:09;9.10;99.90
46720;DHT22;32452;51.382;-0.002;2023-04-24T03:41:54;9.10;99.90
46720;DHT22;32452;51.382;-0.002;2023-04-24T03:44:39;9.10;99.90
46720;DHT22;32452;51.382;-0.002;2023-04-24T03:47:25;9.10;99.90
46720;DHT22;32452;51.382;-0.002;2023-04-24T03:50:11;9.10;99.90
46720;DHT22;32452;51.382;-0.002;2023-04-24T03:52:57;9.10;99.90
46720;DHT22;32452;51.382;-0.002;2023-04-24T03:55:43;9.10;99.90
46720;DHT22;32452;51.382;-0.002;2023-04-24T03:58:29;9.10;99.90
46720;DHT22;32452;51.382;-0.002;2023-04-24T04:01:15;9.00;99.90
46720;DHT22;32452;51.382;-0.002;2023-04-24T04:04:01;9.10;99.90
46720;DHT22;32452;51.382;-0.002;2023-04-24T04:06:47;9.00;99.90
46720;DHT22;32452;51.382;-0.002;2023-04-24T04:09:34;9.00;99.90
46720;DHT22;32452;51.382;-0.002;2023-04-24T04:12:19;9.00;99.90
46720;DHT22;32452;51.382;-0.002;2023-04-24T04:15:05;9.00;99.90
46720;DHT22;32452;51.382;-0.002;2023-04-24T04:17:52;8.90;99.90
46720;DHT22;32452;51.382;-0.002;2023-04-24T04:20:37;8.90;99.90
46720;DHT22;32452;51.382;-0.002;2023-04-24T04:23:23;8.90;99.90
46720;DHT22;32452;51.382;-0.002;2023-04-24T04:26:08;8.90;99.90
46720;DHT22;32452;51.382;-0.002;2023-04-24T04:28:54;8.90;99.90
46720;DHT22;32452;51.382;-0.002;2023-04-24T04:31:39;8.90;99.90
46720;DHT22;32452;51.382;-0.002;2023-04-24T04:34:25;8.90;99.90
46720;DHT22;32452;51.382;-0.002;2023-04-24T04:37:11;9.00;99.90
46720;DHT22;32452;51.382;-0.002;2023-04-24T04:40:00;8.90;99.90
46720;DHT22;32452;51.382;-0.002;2023-04-24T04:42:46;8.90;99.90
46720;DHT22;32452;51.382;-0.002;2023-04-24T04:45:32;8.90;99.90
46720;DHT22;32452;51.382;-0.002;2023-04-24T04:48:19;8.90;99.90
46720;DHT22;32452;51.382;-0.002;2023-04-24T04:51:05;8.90;99.90
46720;DHT22;32452;51.382;-0.002;2023-04-24T04:53:51;8.90;99.90
46720;DHT22;32452;51.382;-0.002;2023-04-24T04:56:36;8.90;99.90
46720;DHT22;32452;51.382;-0.002;2023-04-24T04:59:22;8.90;99.90
46720;DHT22;32452;51.382;-0.002;2023-04-24T05:02:07;8.90;99.90
46720;DHT22;32452;51.382;-0.002;2023-04-24T05:04:53;8.90;99.90
46720;DHT22;32452;51.382;-0.002;2023-04-24T05:07:39;8.90;99.90
46720;DHT22;32452;51.382;-0.002;2023-04-24T05:10:24;8.90;99.90
46720;DHT22;32452;51.382;-0.002;2023-04-24T05:13:10;9.00;99.90
46720;DHT22;32452;51.382;-0.002;2023-04-24T05:15:58;8.90;99.90
46720;DHT22;32452;51.382;-0.002;2023-04-24T05:18:44;9.00;99.90
46720;DHT22;32452;51.382;-0.002;2023-04-24T05:21:29;9.00;99.90
46720;DHT22;32452;51.382;-0.002;2023-04-24T05:24:16;9.00;99.90
46720;DHT22;32452;51.382;-0.002;2023-04-24T05:27:05;9.00;99.90
46720;DHT22;32452;51.382;-0.002;2023-04-24T05:29:50;9.00;99.90
46720;DHT22;32452;51.382;-0.002;2023-04-24T05:32:36;9.00;99.90
46720;DHT22;32452;51.382;-0.002;2023-04-24T05:35:21;9.00;99.90
46720;DHT22;32452;51.382;-0.002;2023-04-24T05:38:07;9.00;99.90
46720;DHT22;32452;51.382;-0.002;2023-04-24T05:40:52;9.00;99.90
46720;DHT22;32452;51.382;-0.002;2023-04-24T05:43:37;9.00;99.90
46720;DHT22;32452;51.382;-0.002;2023-04-24T05:46:23;9.00;99.90
46720;DHT22;32452;51.382;-0.002;2023-04-24T05:49:09;9.00;99.90
46720;DHT22;32452;51.382;-0.002;2023-04-24T05:51:54;9.00;99.90
46720;DHT22;32452;51.382;-0.002;2023-04-24T05:54:40;9.00;99.90
46720;DHT22;32452;51.382;-0.002;2023-04-24T05:57:25;9.10;99.90
46720;DHT22;32452;51.382;-0.002;2023-04-24T06:00:11;9.10;99.90
46720;DHT22;32452;51.382;-0.002;2023-04-24T06:02:57;9.10;99.90
46720;DHT22;32452;51.382;-0.002;2023-04-24T06:05:43;9.10;99.90
46720;DHT22;32452;51.382;-0.002;2023-04-24T06:08:28;9.10;99.90
46720;DHT22;32452;51.382;-0.002;2023-04-24T06:11:14;9.10;99.90
46720;DHT22;32452;51.382;-0.002;2023-04-24T06:13:59;9.20;99.90
46720;DHT22;32452;51.382;-0.002;2023-04-24T06:16:45;9.20;99.90
46720;DHT22;32452;51.382;-0.002;2023-04-24T06:19:34;9.20;99.90
46720;DHT22;32452;51.382;-0.002;2023-04-24T06:22:19;9.30;99.90
46720;DHT22;32452;51.382;-0.002;2023-04-24T06:25:06;9.30;99.90
46720;DHT22;32452;51.382;-0.002;2023-04-24T06:27:52;9.30;99.90
46720;DHT22;32452;51.382;-0.002;2023-04-24T06:30:38;9.40;99.90
46720;DHT22;32452;51.382;-0.002;2023-04-24T06:33:23;9.40;99.90
46720;DHT22;32452;51.382;-0.002;2023-04-24T06:36:09;9.40;99.90
46720;DHT22;32452;51.382;-0.002;2023-04-24T06:38:55;9.50;99.90
46720;DHT22;32452;51.382;-0.002;2023-04-24T06:41:41;9.50;99.90
46720;DHT22;32452;51.382;-0.002;2023-04-24T06:44:27;9.50;99.90
46720;DHT22;32452;51.382;-0.002;2023-04-24T06:47:12;9.70;99.90
46720;DHT22;32452;51.382;-0.002;2023-04-24T06:50:00;9.80;99.90
46720;DHT22;32452;51.382;-0.002;2023-04-24T06:52:46;9.90;99.90
46720;DHT22;32452;51.382;-0.002;2023-04-24T06:55:32;9.90;99.90
46720;DHT22;32452;51.382;-0.002;2023-04-24T06:58:18;10.00;99.90
46720;DHT22;32452;51.382;-0.002;2023-04-24T07:01:03;10.10;99.90
46720;DHT22;32452;51.382;-0.002;2023-04-24T07:03:49;10.20;99.90
46720;DHT22;32452;51.382;-0.002;2023-04-24T07:06:35;10.30;99.90
46720;DHT22;32452;51.382;-0.002;2023-04-24T07:09:22;10.50;99.90
46720;DHT22;32452;51.382;-0.002;2023-04-24T07:12:09;11.10;99.90
46720;DHT22;32452;51.382;-0.002;2023-04-24T07:14:55;12.00;99.90
46720;DHT22;32452;51.382;-0.002;2023-04-24T07:17:41;13.20;99.90
46720;DHT22;32452;51.382;-0.002;2023-04-24T07:20:29;14.40;99.90
46720;DHT22;32452;51.382;-0.002;2023-04-24T07:23:15;15.60;97.80
46720;DHT22;32452;51.382;-0.002;2023-04-24T07:26:00;16.50;93.80
46720;DHT22;32452;51.382;-0.002;2023-04-24T07:28:46;17.30;90.80
46720;DHT22;32452;51.382;-0.002;2023-04-24T07:31:32;17.90;86.20
46720;DHT22;32452;51.382;-0.002;2023-04-24T07:34:18;18.30;82.30
46720;DHT22;32452;51.382;-0.002;2023-04-24T07:37:04;18.60;78.60
46720;DHT22;32452;51.382;-0.002;2023-04-24T07:39:50;18.90;74.60
46720;DHT22;32452;51.382;-0.002;2023-04-24T07:42:35;19.10;72.40
46720;DHT22;32452;51.382;-0.002;2023-04-24T07:45:21;19.50;71.10
46720;DHT22;32452;51.382;-0.002;2023-04-24T07:48:08;20.00;69.00
46720;DHT22;32452;51.382;-0.002;2023-04-24T07:50:54;20.30;66.20
46720;DHT22;32452;51.382;-0.002;2023-04-24T07:53:40;20.60;64.40
46720;DHT22;32452;51.382;-0.002;2023-04-24T07:56:25;20.70;62.30
46720;DHT22;32452;51.382;-0.002;2023-04-24T07:59:12;20.90;59.90
46720;DHT22;32452;51.382;-0.002;2023-04-24T08:01:57;21.20;58.60
46720;DHT22;32452;51.382;-0.002;2023-04-24T08:04:43;21.50;57.90
46720;DHT22;32452;51.382;-0.002;2023-04-24T08:07:29;21.70;56.90
46720;DHT22;32452;51.382;-0.002;2023-04-24T08:10:14;21.80;55.80
46720;DHT22;32452;51.382;-0.002;2023-04-24T08:13:00;21.90;55.50
46720;DHT22;32452;51.382;-0.002;2023-04-24T08:15:46;22.00;54.20
46720;DHT22;32452;51.382;-0.002;2023-04-24T08:18:31;22.10;53.60
46720;DHT22;32452;51.382;-0.002;2023-04-24T08:21:16;21.90;53.20
46720;DHT22;32452;51.382;-0.002;2023-04-24T08:24:03;22.00;52.90
46720;DHT22;32452;51.382;-0.002;2023-04-24T08:26:53;22.30;52.30
46720;DHT22;32452;51.382;-0.002;2023-04-24T08:29:39;22.50;51.50
46720;DHT22;32452;51.382;-0.002;2023-04-24T08:32:26;22.80;50.40
46720;DHT22;32452;51.382;-0.002;2023-04-24T08:35:14;23.10;49.60
46720;DHT22;32452;51.382;-0.002;2023-04-24T08:38:01;23.10;48.80
46720;DHT22;32452;51.382;-0.002;2023-04-24T08:40:47;22.90;48.30
46720;DHT22;32452;51.382;-0.002;2023-04-24T08:43:35;22.10;48.70
46720;DHT22;32452;51.382;-0.002;2023-04-24T08:46:22;21.10;49.60
46720;DHT22;32452;51.382;-0.002;2023-04-24T08:49:08;20.20;51.00
46720;DHT22;32452;51.382;-0.002;2023-04-24T08:51:53;19.60;51.30
46720;DHT22;32452;51.382;-0.002;2023-04-24T08:54:40;19.00;52.20
46720;DHT22;32452;51.382;-0.002;2023-04-24T08:57:29;18.60;52.90
46720;DHT22;32452;51.382;-0.002;2023-04-24T09:00:15;18.40;53.30
46720;DHT22;32452;51.382;-0.002;2023-04-24T09:03:02;18.30;53.40
46720;DHT22;32452;51.382;-0.002;2023-04-24T09:05:50;18.10;54.00
46720;DHT22;32452;51.382;-0.002;2023-04-24T09:08:36;18.30;54.40
46720;DHT22;32452;51.382;-0.002;2023-04-24T09:11:22;18.30;53.70
46720;DHT22;32452;51.382;-0.002;2023-04-24T09:14:10;18.60;54.20
46720;DHT22;32452;51.382;-0.002;2023-04-24T09:16:56;19.40;53.90
46720;DHT22;32452;51.382;-0.002;2023-04-24T09:19:42;19.70;52.80
46720;DHT22;32452;51.382;-0.002;2023-04-24T09:22:31;19.80;52.00
46720;DHT22;32452;51.382;-0.002;2023-04-24T09:25:17;19.80;51.20
46720;DHT22;32452;51.382;-0.002;2023-04-24T09:28:04;19.40;51.50
46720;DHT22;32452;51.382;-0.002;2023-04-24T09:31:08;18.80;52.10
46720;DHT22;32452;51.382;-0.002;2023-04-24T09:34:00;18.60;52.90
46720;DHT22;32452;51.382;-0.002;2023-04-24T09:36:51;18.70;52.90
46720;DHT22;32452;51.382;-0.002;2023-04-24T09:39:37;18.80;52.70
46720;DHT22;32452;51.382;-0.002;2023-04-24T09:42:25;18.60;52.80
46720;DHT22;32452;51.382;-0.002;2023-04-24T09:45:14;18.50;53.00
46720;DHT22;32452;51.382;-0.002;2023-04-24T09:48:01;18.40;52.80
46720;DHT22;32452;51.382;-0.002;2023-04-24T09:50:46;18.60;52.80
46720;DHT22;32452;51.382;-0.002;2023-04-24T09:53:33;18.80;52.20
46720;DHT22;32452;51.382;-0.002;2023-04-24T09:56:18;18.90;52.40
46720;DHT22;32452;51.382;-0.002;2023-04-24T09:59:06;19.00;52.10
46720;DHT22;32452;51.382;-0.002;2023-04-24T10:01:52;18.60;51.80
46720;DHT22;32452;51.382;-0.002;2023-04-24T10:04:37;18.20;52.10
46720;DHT22;32452;51.382;-0.002;2023-04-24T10:07:26;17.50;52.40
46720;DHT22;32452;51.382;-0.002;2023-04-24T10:10:11;17.10;53.40
46720;DHT22;32452;51.382;-0.002;2023-04-24T10:12:57;16.70;54.50
46720;DHT22;32452;51.382;-0.002;2023-04-24T10:15:43;16.50;55.10
46720;DHT22;32452;51.382;-0.002;2023-04-24T10:18:29;16.40;55.60
46720;DHT22;32452;51.382;-0.002;2023-04-24T10:21:17;16.30;55.60
46720;DHT22;32452;51.382;-0.002;2023-04-24T10:24:02;16.10;55.80
46720;DHT22;32452;51.382;-0.002;2023-04-24T10:26:50;16.00;55.90
46720;DHT22;32452;51.382;-0.002;2023-04-24T10:29:38;15.80;56.20
46720;DHT22;32452;51.382;-0.002;2023-04-24T10:32:23;15.70;56.70
46720;DHT22;32452;51.382;-0.002;2023-04-24T10:35:11;15.60;56.90
46720;DHT22;32452;51.382;-0.002;2023-04-24T10:38:01;15.50;57.20
46720;DHT22;32452;51.382;-0.002;2023-04-24T10:40:48;15.50;57.40
46720;DHT22;32452;51.382;-0.002;2023-04-24T10:43:34;15.50;57.60
46720;DHT22;32452;51.382;-0.002;2023-04-24T10:46:20;15.40;57.70
46720;DHT22;32452;51.382;-0.002;2023-04-24T10:49:09;15.40;58.10
46720;DHT22;32452;51.382;-0.002;2023-04-24T10:52:00;15.30;58.40
46720;DHT22;32452;51.382;-0.002;2023-04-24T10:54:47;15.30;58.40
46720;DHT22;32452;51.382;-0.002;2023-04-24T10:57:32;15.30;58.70
46720;DHT22;32452;51.382;-0.002;2023-04-24T11:00:21;15.40;58.80
46720;DHT22;32452;51.382;-0.002;2023-04-24T11:03:28;15.50;58.70
46720;DHT22;32452;51.382;-0.002;2023-04-24T11:06:15;15.70;58.60
46720;DHT22;32452;51.382;-0.002;2023-04-24T11:09:08;15.70;58.40
46720;DHT22;32452;51.382;-0.002;2023-04-24T11:12:09;15.70;58.20
46720;DHT22;32452;51.382;-0.002;2023-04-24T11:17:43;15.60;58.50
46720;DHT22;32452;51.382;-0.002;2023-04-24T11:20:29;15.70;58.60
46720;DHT22;32452;51.382;-0.002;2023-04-24T11:23:16;15.70;58.70
46720;DHT22;32452;51.382;-0.002;2023-04-24T11:26:11;15.70;58.60
46720;DHT22;32452;51.382;-0.002;2023-04-24T11:29:07;15.70;58.60
46720;DHT22;32452;51.382;-0.002;2023-04-24T11:31:52;15.80;58.60
46720;DHT22;32452;51.382;-0.002;2023-04-24T11:34:38;16.00;58.80
46720;DHT22;32452;51.382;-0.002;2023-04-24T11:37:28;16.40;58.30
46720;DHT22;32452;51.382;-0.002;2023-04-24T11:40:14;16.70;57.80
46720;DHT22;32452;51.382;-0.002;2023-04-24T11:43:04;17.10;57.30
46720;DHT22;32452;51.382;-0.002;2023-04-24T11:45:52;17.30;56.70
46720;DHT22;32452;51.382;-0.002;2023-04-24T11:48:38;17.40;56.40
46720;DHT22;32452;51.382;-0.002;2023-04-24T11:51:27;17.30;56.00
46720;DHT22;32452;51.382;-0.002;2023-04-24T11:54:21;17.20;56.10
46720;DHT22;32452;51.382;-0.002;2023-04-24T11:57:07;17.10;56.00
46720;DHT22;32452;51.382;-0.002;2023-04-24T11:59:52;17.00;56.10
46720;DHT22;32452;51.382;-0.002;2023-04-24T12:02:39;17.00;56.30
46720;DHT22;32452;51.382;-0.002;2023-04-24T12:05:33;17.10;56.60
46720;DHT22;32452;51.382;-0.002;2023-04-24T12:08:28;17.50;56.50
46720;DHT22;32452;51.382;-0.002;2023-04-24T12:11:16;18.20;56.50
46720;DHT22;32452;51.382;-0.002;2023-04-24T12:14:10;18.60;55.10
46720;DHT22;32452;51.382;-0.002;2023-04-24T12:16:56;18.80;53.70
46720;DHT22;32452;51.382;-0.002;2023-04-24T12:19:49;19.20;53.60
46720;DHT22;32452;51.382;-0.002;2023-04-24T12:25:33;19.00;52.30
46720;DHT22;32452;51.382;-0.002;2023-04-24T12:28:22;18.80;52.50
46720;DHT22;32452;51.382;-0.002;2023-04-24T12:31:07;18.80;52.90
46720;DHT22;32452;51.382;-0.002;2023-04-24T12:33:55;18.80;53.40
46720;DHT22;32452;51.382;-0.002;2023-04-24T12:36:40;18.80;53.30
46720;DHT22;32452;51.382;-0.002;2023-04-24T12:39:26;18.70;53.20
46720;DHT22;32452;51.382;-0.002;2023-04-24T12:42:12;18.80;53.50
46720;DHT22;32452;51.382;-0.002;2023-04-24T12:45:05;19.00;53.10
46720;DHT22;32452;51.382;-0.002;2023-04-24T12:47:51;19.10;52.50
46720;DHT22;32452;51.382;-0.002;2023-04-24T12:50:38;19.30;52.60
46720;DHT22;32452;51.382;-0.002;2023-04-24T12:53:23;19.30;52.00
46720;DHT22;32452;51.382;-0.002;2023-04-24T12:56:11;19.10;52.10
46720;DHT22;32452;51.382;-0.002;2023-04-24T12:58:57;18.90;52.10
46720;DHT22;32452;51.382;-0.002;2023-04-24T13:01:42;18.60;51.90
46720;DHT22;32452;51.382;-0.002;2023-04-24T13:04:28;18.40;52.30
46720;DHT22;32452;51.382;-0.002;2023-04-24T13:07:14;18.30;52.50
46720;DHT22;32452;51.382;-0.002;2023-04-24T13:10:00;18.30;52.60
46720;DHT22;32452;51.382;-0.002;2023-04-24T13:12:46;18.20;52.60
46720;DHT22;32452;51.382;-0.002;2023-04-24T13:15:32;18.00;52.50
46720;DHT22;32452;51.382;-0.002;2023-04-24T13:18:18;17.90;52.90
46720;DHT22;32452;51.382;-0.002;2023-04-24T13:21:04;17.80;52.80
46720;DHT22;32452;51.382;-0.002;2023-04-24T13:23:49;17.50;53.00
46720;DHT22;32452;51.382;-0.002;2023-04-24T13:26:35;17.40;53.30
46720;DHT22;32452;51.382;-0.002;2023-04-24T13:29:21;17.50;53.60
46720;DHT22;32452;51.382;-0.002;2023-04-24T13:32:08;17.50;53.50
46720;DHT22;32452;51.382;-0.002;2023-04-24T13:34:54;17.70;53.50
46720;DHT22;32452;51.382;-0.002;2023-04-24T13:37:40;17.90;53.20
46720;DHT22;32452;51.382;-0.002;2023-04-24T13:40:26;18.00;53.10
46720;DHT22;32452;51.382;-0.002;2023-04-24T13:43:12;18.10;52.50
46720;DHT22;32452;51.382;-0.002;2023-04-24T13:45:57;18.10;52.20
46720;DHT22;32452;51.382;-0.002;2023-04-24T13:48:47;18.00;52.20
46720;DHT22;32452;51.382;-0.002;2023-04-24T13:51:33;18.10;52.10
46720;DHT22;32452;51.382;-0.002;2023-04-24T13:54:19;18.10;51.80
46720;DHT22;32452;51.382;-0.002;2023-04-24T13:57:04;18.00;51.90
46720;DHT22;32452;51.382;-0.002;2023-04-24T13:59:50;18.00;52.40
46720;DHT22;32452;51.382;-0.002;2023-04-24T14:02:36;18.10;52.40
46720;DHT22;32452;51.382;-0.002;2023-04-24T14:05:22;18.20;51.90
46720;DHT22;32452;51.382;-0.002;2023-04-24T14:08:08;18.20;52.00
46720;DHT22;32452;51.382;-0.002;2023-04-24T14:10:54;18.10;52.00
46720;DHT22;32452;51.382;-0.002;2023-04-24T14:13:41;18.00;52.20
46720;DHT22;32452;51.382;-0.002;2023-04-24T14:16:28;17.90;51.90
46720;DHT22;32452;51.382;-0.002;2023-04-24T14:19:14;17.80;52.10
46720;DHT22;32452;51.382;-0.002;2023-04-24T14:22:02;17.70;52.30
46720;DHT22;32452;51.382;-0.002;2023-04-24T14:24:48;17.60;52.50
46720;DHT22;32452;51.382;-0.002;2023-04-24T14:27:34;17.60;52.80
46720;DHT22;32452;51.382;-0.002;2023-04-24T14:30:20;17.70;52.70
46720;DHT22;32452;51.382;-0.002;2023-04-24T14:33:06;17.80;52.50
46720;DHT22;32452;51.382;-0.002;2023-04-24T14:35:52;17.80;52.10
46720;DHT22;32452;51.382;-0.002;2023-04-24T14:38:38;17.80;51.80
46720;DHT22;32452;51.382;-0.002;2023-04-24T14:41:23;17.70;51.70
46720;DHT22;32452;51.382;-0.002;2023-04-24T14:44:09;17.50;51.70
46720;DHT22;32452;51.382;-0.002;2023-04-24T14:47:00;17.20;52.10
46720;DHT22;32452;51.382;-0.002;2023-04-24T14:49:46;17.00;52.50
46720;DHT22;32452;51.382;-0.002;2023-04-24T14:52:32;16.80;52.80
46720;DHT22;32452;51.382;-0.002;2023-04-24T14:55:18;16.60;53.70
46720;DHT22;32452;51.382;-0.002;2023-04-24T14:58:05;16.40;53.40
46720;DHT22;32452;51.382;-0.002;2023-04-24T15:00:51;16.30;53.40
46720;DHT22;32452;51.382;-0.002;2023-04-24T15:03:40;16.20;53.70
46720;DHT22;32452;51.382;-0.002;2023-04-24T15:06:26;16.00;53.80
46720;DHT22;32452;51.382;-0.002;2023-04-24T15:09:16;15.90;54.00
46720;DHT22;32452;51.382;-0.002;2023-04-24T15:12:02;15.70;54.30
46720;DHT22;32452;51.382;-0.002;2023-04-24T15:14:58;15.50;54.50
46720;DHT22;32452;51.382;-0.002;2023-04-24T15:17:50;15.40;54.60
46720;DHT22;32452;51.382;-0.002;2023-04-24T15:20:36;15.30;54.70
46720;DHT22;32452;51.382;-0.002;2023-04-24T15:23:24;15.10;55.30
46720;DHT22;32452;51.382;-0.002;2023-04-24T15:26:10;14.90;56.60
46720;DHT22;32452;51.382;-0.002;2023-04-24T15:28:55;14.40;57.70
46720;DHT22;32452;51.382;-0.002;2023-04-24T15:31:40;14.00;59.70
46720;DHT22;32452;51.382;-0.002;2023-04-24T15:34:27;13.60;62.40
46720;DHT22;32452;51.382;-0.002;2023-04-24T15:37:12;13.10;65.50
46720;DHT22;32452;51.382;-0.002;2023-04-24T15:39:58;12.80;67.80
46720;DHT22;32452;51.382;-0.002;2023-04-24T15:42:45;12.60;69.80
46720;DHT22;32452;51.382;-0.002;2023-04-24T15:45:30;12.40;71.00
46720;DHT22;32452;51.382;-0.002;2023-04-24T15:48:18;12.30;71.90
46720;DHT22;32452;51.382;-0.002;2023-04-24T15:51:04;12.30;72.90
46720;DHT22;32452;51.382;-0.002;2023-04-24T15:53:49;12.20;73.60
46720;DHT22;32452;51.382;-0.002;2023-04-24T15:56:35;12.20;74.20
46720;DHT22;32452;51.382;-0.002;2023-04-24T15:59:21;12.10;75.00
46720;DHT22;32452;51.382;-0.002;2023-04-24T16:02:09;12.00;75.50
46720;DHT22;32452;51.382;-0.002;2023-04-24T16:04:56;11.90;76.40
46720;DHT22;32452;51.382;-0.002;2023-04-24T16:07:42;11.90;77.40
46720;DHT22;32452;51.382;-0.002;2023-04-24T16:10:28;11.70;78.30
46720;DHT22;32452;51.382;-0.002;2023-04-24T16:13:17;11.70;79.00
46720;DHT22;32452;51.382;-0.002;2023-04-24T16:16:03;11.70;80.00
46720;DHT22;32452;51.382;-0.002;2023-04-24T16:18:49;11.60;80.70
46720;DHT22;32452;51.382;-0.002;2023-04-24T16:21:34;11.60;81.30
46720;DHT22;32452;51.382;-0.002;2023-04-24T16:24:21;11.60;81.90
46720;DHT22;32452;51.382;-0.002;2023-04-24T16:27:06;11.50;82.20
46720;DHT22;32452;51.382;-0.002;2023-04-24T16:29:52;11.50;83.00
46720;DHT22;32452;51.382;-0.002;2023-04-24T16:32:40;11.50;83.60
46720;DHT22;32452;51.382;-0.002;2023-04-24T16:35:26;11.50;84.30
46720;DHT22;32452;51.382;-0.002;2023-04-24T16:38:12;11.40;85.10
46720;DHT22;32452;51.382;-0.002;2023-04-24T16:40:58;11.40;85.90
46720;DHT22;32452;51.382;-0.002;2023-04-24T16:43:47;11.40;86.40
46720;DHT22;32452;51.382;-0.002;2023-04-24T16:46:33;11.40;87.20
46720;DHT22;32452;51.382;-0.002;2023-04-24T16:49:23;11.30;88.00
46720;DHT22;32452;51.382;-0.002;2023-04-24T16:52:10;11.30;88.50
46720;DHT22;32452;51.382;-0.002;2023-04-24T16:54:56;11.30;89.20
46720;DHT22;32452;51.382;-0.002;2023-04-24T16:57:41;11.30;90.00
46720;DHT22;32452;51.382;-0.002;2023-04-24T17:00:27;11.20;90.30
46720;DHT22;32452;51.382;-0.002;2023-04-24T17:03:13;11.30;90.70
46720;DHT22;32452;51.382;-0.002;2023-04-24T17:05:59;11.30;91.00
46720;DHT22;32452;51.382;-0.002;2023-04-24T17:08:45;11.20;91.40
46720;DHT22;32452;51.382;-0.002;2023-04-24T17:11:31;11.20;91.10
46720;DHT22;32452;51.382;-0.002;2023-04-24T17:14:16;11.20;91.20
46720;DHT22;32452;51.382;-0.002;2023-04-24T17:17:02;11.20;91.40
46720;DHT22;32452;51.382;-0.002;2023-04-24T17:19:48;11.20;91.60
46720;DHT22;32452;51.382;-0.002;2023-04-24T17:22:35;11.10;91.90
46720;DHT22;32452;51.382;-0.002;2023-04-24T17:25:21;11.10;92.20
46720;DHT22;32452;51.382;-0.002;2023-04-24T17:28:30;11.10;92.60
46720;DHT22;32452;51.382;-0.002;2023-04-24T17:31:16;11.00;92.70